sensor_id;sensor_type;location;lat;lon;timestamp;noise_LAeq;noise_LA_min;noise_LA_max;noise_LA01;noise_LA95
84579;Laerm;74804;52.100;5.116;2024-01-07T00:02:26;35.78;30.81;49.98;;
84579;Laerm;74804;52.100;5.116;2024-01-07T00:04:59;38.79;31.18;49.11;;
84579;Laerm;74804;52.100;5.116;2024-01-07T00:07:32;39.64;32.67;53.21;;
84579;Laerm;74804;52.100;5.116;2024-01-07T00:10:06;40.18;32.77;56.57;;
84579;Laerm;74804;52.100;5.116;2024-01-07T00:12:37;41.26;32.81;58.03;;
84579;Laerm;74804;52.100;5.116;2024-01-07T00:15:09;37.47;31.07;56.95;;
84579;Laerm;74804;52.100;5.116;2024-01-07T00:17:40;38.00;31.54;61.70;;
84579;Laerm;74804;52.100;5.116;2024-01-07T00:20:11;36.39;31.15;52.11;;
84579;Laerm;74804;52.100;5.116;2024-01-07T00:22:42;34.23;31.54;42.10;;
84579;Laerm;74804;52.100;5.116;2024-01-07T00:25:16;34.45;31.11;39.08;;
84579;Laerm;74804;52.100;5.116;2024-01-07T00:27:49;36.70;31.20;52.35;;
84579;Laerm;74804;52.100;5.116;2024-01-07T00:30:22;37.26;31.29;48.95;;
84579;Laerm;74804;52.100;5.116;2024-01-07T00:32:54;35.72;30.76;46.76;;
84579;Laerm;74804;52.100;5.116;2024-01-07T00:35:25;35.87;31.15;44.75;;
84579;Laerm;74804;52.100;5.116;2024-01-07T00:37:56;35.93;31.65;49.48;;
84579;Laerm;74804;52.100;5.116;2024-01-07T00:40:30;37.17;31.23;50.30;;
84579;Laerm;74804;52.100;5.116;2024-01-07T00:43:01;33.29;31.04;43.27;;
84579;Laerm;74804;52.100;5.116;2024-01-07T00:45:32;35.47;31.08;44.41;;
84579;Laerm;74804;52.100;5.116;2024-01-07T00:48:03;35.82;31.70;44.87;;
84579;Laerm;74804;52.100;5.116;2024-01-07T00:50:34;37.13;30.57;49.49;;
84579;Laerm;74804;52.100;5.116;2024-01-07T00:53:06;34.78;30.64;41.53;;
84579;Laerm;74804;52.100;5.116;2024-01-07T00:55:39;33.54;30.59;39.08;;
84579;Laerm;74804;52.100;5.116;2024-01-07T00:58:10;35.23;31.17;47.51;;
84579;Laerm;74804;52.100;5.116;2024-01-07T01:00:41;34.15;30.58;44.27;;
84579;Laerm;74804;52.100;5.116;2024-01-07T01:03:13;34.74;31.00;43.62;;
84579;Laerm;74804;52.100;5.116;2024-01-07T01:05:44;37.28;30.69;51.26;;
84579;Laerm;74804;52.100;5.116;2024-01-07T01:08:15;34.68;30.57;42.61;;
84579;Laerm;74804;52.100;5.116;2024-01-07T01:10:49;37.19;30.60;52.09;;
84579;Laerm;74804;52.100;5.116;2024-01-07T01:13:20;36.20;30.84;49.03;;
84579;Laerm;74804;52.100;5.116;2024-01-07T01:15:51;34.50;30.93;42.11;;
84579;Laerm;74804;52.100;5.116;2024-01-07T01:18:22;33.75;30.75;40.22;;
84579;Laerm;74804;52.100;5.116;2024-01-07T01:20:55;38.19;31.05;61.78;;
84579;Laerm;74804;52.100;5.116;2024-01-07T01:23:26;35.51;30.28;48.67;;
84579;Laerm;74804;52.100;5.116;2024-01-07T01:26:00;34.20;30.09;40.23;;
84579;Laerm;74804;52.100;5.116;2024-01-07T01:28:31;34.11;30.35;46.57;;
84579;Laerm;74804;52.100;5.116;2024-01-07T01:31:02;35.25;30.33;46.93;;
84579;Laerm;74804;52.100;5.116;2024-01-07T01:33:34;38.57;30.87;56.20;;
84579;Laerm;74804;52.100;5.116;2024-01-07T01:36:05;38.95;30.97;52.03;;
84579;Laerm;74804;52.100;5.116;2024-01-07T01:38:36;35.66;30.70;42.89;;
84579;Laerm;74804;52.100;5.116;2024-01-07T01:41:10;36.60;30.12;51.88;;
84579;Laerm;74804;52.100;5.116;2024-01-07T01:43:41;34.61;30.08;43.64;;
84579;Laerm;74804;52.100;5.116;2024-01-07T01:46:12;37.60;31.09;53.20;;
84579;Laerm;74804;52.100;5.116;2024-01-07T01:48:44;32.90;30.30;40.96;;
84579;Laerm;74804;52.100;5.116;2024-01-07T01:51:15;36.27;30.43;47.31;;
84579;Laerm;74804;52.100;5.116;2024-01-07T01:53:47;33.44;29.86;43.71;;
84579;Laerm;74804;52.100;5.116;2024-01-07T01:56:21;33.85;30.14;43.24;;
84579;Laerm;74804;52.100;5.116;2024-01-07T01:58:53;37.53;30.67;47.18;;
84579;Laerm;74804;52.100;5.116;2024-01-07T02:01:24;34.86;30.86;55.11;;
84579;Laerm;74804;52.100;5.116;2024-01-07T02:03:55;35.40;30.49;47.28;;
84579;Laerm;74804;52.100;5.116;2024-01-07T02:06:26;36.62;31.12;49.61;;
84579;Laerm;74804;52.100;5.116;2024-01-07T02:08:58;33.11;30.90;39.64;;
84579;Laerm;74804;52.100;5.116;2024-01-07T02:11:32;35.57;31.01;44.01;;
84579;Laerm;74804;52.100;5.116;2024-01-07T02:14:03;34.98;30.69;43.37;;
84579;Laerm;74804;52.100;5.116;2024-01-07T02:16:34;33.73;30.90;41.23;;
84579;Laerm;74804;52.100;5.116;2024-01-07T02:19:05;33.90;31.10;40.37;;
84579;Laerm;74804;52.100;5.116;2024-01-07T02:21:37;36.00;31.77;49.56;;
84579;Laerm;74804;52.100;5.116;2024-01-07T02:24:14;35.41;31.24;43.09;;
84579;Laerm;74804;52.100;5.116;2024-01-07T02:26:45;34.13;30.66;40.75;;
84579;Laerm;74804;52.100;5.116;2024-01-07T02:29:17;33.38;30.89;37.89;;
84579;Laerm;74804;52.100;5.116;2024-01-07T02:31:48;33.32;30.65;38.36;;
84579;Laerm;74804;52.100;5.116;2024-01-07T02:34:19;33.40;30.01;40.83;;
84579;Laerm;74804;52.100;5.116;2024-01-07T02:36:50;32.50;30.47;38.40;;
84579;Laerm;74804;52.100;5.116;2024-01-07T02:39:24;35.44;30.77;46.36;;
84579;Laerm;74804;52.100;5.116;2024-01-07T02:41:55;35.44;30.42;48.81;;
84579;Laerm;74804;52.100;5.116;2024-01-07T02:44:26;32.26;30.05;38.67;;
84579;Laerm;74804;52.100;5.116;2024-01-07T02:46:57;36.65;30.85;45.53;;
84579;Laerm;74804;52.100;5.116;2024-01-07T02:49:28;36.32;31.33;47.12;;
84579;Laerm;74804;52.100;5.116;2024-01-07T02:51:59;33.50;30.97;40.85;;
84579;Laerm;74804;52.100;5.116;2024-01-07T02:54:33;33.33;30.38;42.60;;
84579;Laerm;74804;52.100;5.116;2024-01-07T02:57:04;35.93;30.06;46.96;;
84579;Laerm;74804;52.100;5.116;2024-01-07T02:59:36;33.96;30.44;40.66;;
84579;Laerm;74804;52.100;5.116;2024-01-07T03:02:07;33.05;30.38;48.65;;
84579;Laerm;74804;52.100;5.116;2024-01-07T03:04:38;36.49;31.22;47.78;;
84579;Laerm;74804;52.100;5.116;2024-01-07T03:07:09;35.36;30.39;44.24;;
84579;Laerm;74804;52.100;5.116;2024-01-07T03:09:43;33.38;30.96;40.11;;
84579;Laerm;74804;52.100;5.116;2024-01-07T03:12:14;36.66;31.08;56.87;;
84579;Laerm;74804;52.100;5.116;2024-01-07T03:14:45;34.40;30.91;39.38;;
84579;Laerm;74804;52.100;5.116;2024-01-07T03:17:16;34.78;31.12;42.66;;
84579;Laerm;74804;52.100;5.116;2024-01-07T03:19:48;32.59;30.45;37.81;;
84579;Laerm;74804;52.100;5.116;2024-01-07T03:22:20;33.30;30.00;42.00;;
84579;Laerm;74804;52.100;5.116;2024-01-07T03:24:53;34.26;30.40;45.10;;
84579;Laerm;74804;52.100;5.116;2024-01-07T03:27:24;34.57;31.14;42.94;;
84579;Laerm;74804;52.100;5.116;2024-01-07T03:29:56;35.13;30.15;47.07;;
84579;Laerm;74804;52.100;5.116;2024-01-07T03:32:27;33.14;29.75;40.14;;
84579;Laerm;74804;52.100;5.116;2024-01-07T03:34:58;34.37;30.31;45.73;;
84579;Laerm;74804;52.100;5.116;2024-01-07T03:37:29;36.81;30.23;44.58;;
84579;Laerm;74804;52.100;5.116;2024-01-07T03:40:03;32.53;29.74;41.42;;
84579;Laerm;74804;52.100;5.116;2024-01-07T03:42:34;33.53;29.93;45.45;;
84579;Laerm;74804;52.100;5.116;2024-01-07T03:45:06;34.07;30.47;45.02;;
84579;Laerm;74804;52.100;5.116;2024-01-07T03:47:37;33.08;30.61;39.24;;
84579;Laerm;74804;52.100;5.116;2024-01-07T03:50:08;33.14;29.98;40.20;;
84579;Laerm;74804;52.100;5.116;2024-01-07T03:52:39;34.54;30.54;40.62;;
84579;Laerm;74804;52.100;5.116;2024-01-07T03:55:13;34.24;30.48;45.65;;
84579;Laerm;74804;52.100;5.116;2024-01-07T03:57:44;32.75;30.32;38.18;;
84579;Laerm;74804;52.100;5.116;2024-01-07T04:00:15;33.48;30.43;39.90;;
84579;Laerm;74804;52.100;5.116;2024-01-07T04:02:47;36.98;29.92;46.58;;
84579;Laerm;74804;52.100;5.116;2024-01-07T04:05:18;33.01;30.27;40.27;;
84579;Laerm;74804;52.100;5.116;2024-01-07T04:07:49;34.73;29.83;42.84;;
84579;Laerm;74804;52.100;5.116;2024-01-07T04:10:23;34.42;30.83;43.24;;
84579;Laerm;74804;52.100;5.116;2024-01-07T04:12:54;34.18;31.06;41.01;;
84579;Laerm;74804;52.100;5.116;2024-01-07T04:15:25;34.44;30.03;44.10;;
84579;Laerm;74804;52.100;5.116;2024-01-07T04:17:56;32.49;29.90;37.86;;
84579;Laerm;74804;52.100;5.116;2024-01-07T04:20:27;34.89;30.65;43.33;;
84579;Laerm;74804;52.100;5.116;2024-01-07T04:22:58;35.60;30.25;45.77;;
84579;Laerm;74804;52.100;5.116;2024-01-07T04:25:32;32.31;30.12;39.86;;
84579;Laerm;74804;52.100;5.116;2024-01-07T04:28:03;32.31;30.10;46.38;;
84579;Laerm;74804;52.100;5.116;2024-01-07T04:30:35;32.99;30.05;45.88;;
84579;Laerm;74804;52.100;5.116;2024-01-07T04:33:06;32.85;29.91;41.22;;
84579;Laerm;74804;52.100;5.116;2024-01-07T04:35:38;34.96;30.78;40.60;;
84579;Laerm;74804;52.100;5.116;2024-01-07T04:38:09;33.00;30.23;38.62;;
84579;Laerm;74804;52.100;5.116;2024-01-07T04:40:43;33.30;30.50;41.53;;
84579;Laerm;74804;52.100;5.116;2024-01-07T04:43:14;33.86;29.89;43.48;;
84579;Laerm;74804;52.100;5.116;2024-01-07T04:45:45;36.32;31.44;46.22;;
84579;Laerm;74804;52.100;5.116;2024-01-07T04:48:16;34.09;30.46;40.35;;
84579;Laerm;74804;52.100;5.116;2024-01-07T04:50:47;32.88;29.91;37.16;;
84579;Laerm;74804;52.100;5.116;2024-01-07T04:53:18;32.80;30.15;41.78;;
84579;Laerm;74804;52.100;5.116;2024-01-07T04:55:52;31.94;29.79;37.28;;
84579;Laerm;74804;52.100;5.116;2024-01-07T04:58:23;31.84;29.84;35.82;;
84579;Laerm;74804;52.100;5.116;2024-01-07T05:00:54;34.06;30.70;42.09;;
84579;Laerm;74804;52.100;5.116;2024-01-07T05:03:28;31.95;29.93;36.52;;
84579;Laerm;74804;52.100;5.116;2024-01-07T05:05:59;32.21;29.99;37.90;;
84579;Laerm;74804;52.100;5.116;2024-01-07T05:08:30;32.39;30.32;36.78;;
84579;Laerm;74804;52.100;5.116;2024-01-07T05:11:04;33.49;30.01;46.48;;
84579;Laerm;74804;52.100;5.116;2024-01-07T05:13:35;33.56;30.16;40.01;;
84579;Laerm;74804;52.100;5.116;2024-01-07T05:16:07;33.42;30.05;39.31;;
84579;Laerm;74804;52.100;5.116;2024-01-07T05:18:38;34.15;30.26;44.41;;
84579;Laerm;74804;52.100;5.116;2024-01-07T05:21:09;33.28;30.65;38.09;;
84579;Laerm;74804;52.100;5.116;2024-01-07T05:23:40;32.05;29.93;41.78;;
84579;Laerm;74804;52.100;5.116;2024-01-07T05:26:14;31.24;29.90;34.06;;
84579;Laerm;74804;52.100;5.116;2024-01-07T05:28:45;33.66;30.31;40.65;;
84579;Laerm;74804;52.100;5.116;2024-01-07T05:31:16;32.64;30.67;35.41;;
84579;Laerm;74804;52.100;5.116;2024-01-07T05:33:47;33.05;30.59;41.43;;
84579;Laerm;74804;52.100;5.116;2024-01-07T05:36:18;32.78;30.91;36.79;;
84579;Laerm;74804;52.100;5.116;2024-01-07T05:38:49;41.35;30.82;55.00;;
84579;Laerm;74804;52.100;5.116;2024-01-07T05:41:23;34.74;31.85;42.68;;
84579;Laerm;74804;52.100;5.116;2024-01-07T05:43:54;37.04;32.24;58.43;;
84579;Laerm;74804;52.100;5.116;2024-01-07T05:46:25;36.43;31.05;49.18;;
84579;Laerm;74804;52.100;5.116;2024-01-07T05:48:56;35.58;32.02;49.44;;
84579;Laerm;74804;52.100;5.116;2024-01-07T05:51:28;34.68;30.78;53.45;;
84579;Laerm;74804;52.100;5.116;2024-01-07T05:53:59;34.07;30.61;44.58;;
84579;Laerm;74804;52.100;5.116;2024-01-07T05:56:33;34.76;30.93;47.08;;
84579;Laerm;74804;52.100;5.116;2024-01-07T05:59:08;35.83;31.92;43.80;;
84579;Laerm;74804;52.100;5.116;2024-01-07T06:01:40;34.43;31.28;39.68;;
84579;Laerm;74804;52.100;5.116;2024-01-07T06:04:11;32.68;30.52;39.14;;
84579;Laerm;74804;52.100;5.116;2024-01-07T06:06:42;33.83;31.02;41.32;;
84579;Laerm;74804;52.100;5.116;2024-01-07T06:09:13;34.77;31.67;40.52;;
84579;Laerm;74804;52.100;5.116;2024-01-07T06:11:47;36.86;30.84;48.24;;
84579;Laerm;74804;52.100;5.116;2024-01-07T06:14:18;38.39;31.34;49.02;;
84579;Laerm;74804;52.100;5.116;2024-01-07T06:16:49;33.92;30.93;40.29;;
84579;Laerm;74804;52.100;5.116;2024-01-07T06:19:21;34.45;31.41;42.37;;
84579;Laerm;74804;52.100;5.116;2024-01-07T06:21:52;36.44;32.32;42.31;;
84579;Laerm;74804;52.100;5.116;2024-01-07T06:24:23;35.21;31.60;45.99;;
84579;Laerm;74804;52.100;5.116;2024-01-07T06:26:57;35.56;31.20;42.02;;
84579;Laerm;74804;52.100;5.116;2024-01-07T06:29:31;38.12;32.27;50.39;;
84579;Laerm;74804;52.100;5.116;2024-01-07T06:32:02;37.66;32.54;49.71;;
84579;Laerm;74804;52.100;5.116;2024-01-07T06:34:33;35.51;32.20;49.80;;
84579;Laerm;74804;52.100;5.116;2024-01-07T06:37:04;34.02;31.68;38.41;;
84579;Laerm;74804;52.100;5.116;2024-01-07T06:39:37;33.88;31.54;39.70;;
84579;Laerm;74804;52.100;5.116;2024-01-07T06:42:11;34.35;31.86;38.52;;
84579;Laerm;74804;52.100;5.116;2024-01-07T06:44:42;35.59;32.44;45.65;;
84579;Laerm;74804;52.100;5.116;2024-01-07T06:47:13;36.01;31.66;53.22;;
84579;Laerm;74804;52.100;5.116;2024-01-07T06:49:45;34.09;31.59;38.86;;
84579;Laerm;74804;52.100;5.116;2024-01-07T06:52:16;34.43;31.62;42.14;;
84579;Laerm;74804;52.100;5.116;2024-01-07T06:54:48;34.70;32.24;40.34;;
84579;Laerm;74804;52.100;5.116;2024-01-07T06:57:22;35.55;31.78;44.86;;
84579;Laerm;74804;52.100;5.116;2024-01-07T06:59:53;37.77;32.52;55.07;;
84579;Laerm;74804;52.100;5.116;2024-01-07T07:02:24;35.18;31.84;42.33;;
84579;Laerm;74804;52.100;5.116;2024-01-07T07:04:55;35.99;32.87;42.93;;
84579;Laerm;74804;52.100;5.116;2024-01-07T07:07:26;37.05;33.28;52.01;;
84579;Laerm;74804;52.100;5.116;2024-01-07T07:09:58;34.71;32.33;39.53;;
84579;Laerm;74804;52.100;5.116;2024-01-07T07:12:31;35.70;31.87;44.37;;
84579;Laerm;74804;52.100;5.116;2024-01-07T07:15:03;36.53;31.69;43.92;;
84579;Laerm;74804;52.100;5.116;2024-01-07T07:17:34;37.74;32.69;52.94;;
84579;Laerm;74804;52.100;5.116;2024-01-07T07:20:05;36.03;32.94;43.35;;
84579;Laerm;74804;52.100;5.116;2024-01-07T07:22:37;36.42;32.52;50.77;;
84579;Laerm;74804;52.100;5.116;2024-01-07T07:25:08;36.44;31.87;49.15;;
84579;Laerm;74804;52.100;5.116;2024-01-07T07:27:42;36.74;33.20;47.40;;
84579;Laerm;74804;52.100;5.116;2024-01-07T07:30:13;43.56;32.27;62.12;;
84579;Laerm;74804;52.100;5.116;2024-01-07T07:32:44;39.65;32.66;55.73;;
84579;Laerm;74804;52.100;5.116;2024-01-07T07:35:16;39.54;33.97;47.68;;
84579;Laerm;74804;52.100;5.116;2024-01-07T07:37:47;40.36;34.04;52.30;;
84579;Laerm;74804;52.100;5.116;2024-01-07T07:40:18;39.50;33.98;56.96;;
84579;Laerm;74804;52.100;5.116;2024-01-07T07:42:52;43.41;33.20;62.24;;
84579;Laerm;74804;52.100;5.116;2024-01-07T07:45:23;43.28;33.24;60.30;;
84579;Laerm;74804;52.100;5.116;2024-01-07T07:47:54;44.36;33.45;62.32;;
84579;Laerm;74804;52.100;5.116;2024-01-07T07:50:25;44.07;33.36;62.63;;
84579;Laerm;74804;52.100;5.116;2024-01-07T07:52:56;39.11;33.37;51.43;;
84579;Laerm;74804;52.100;5.116;2024-01-07T07:55:27;36.77;32.56;57.27;;
84579;Laerm;74804;52.100;5.116;2024-01-07T07:58:01;42.83;32.86;62.46;;
84579;Laerm;74804;52.100;5.116;2024-01-07T08:00:32;39.39;34.42;48.04;;
84579;Laerm;74804;52.100;5.116;2024-01-07T08:03:04;37.07;33.85;53.16;;
84579;Laerm;74804;52.100;5.116;2024-01-07T08:05:35;36.86;34.27;49.63;;
84579;Laerm;74804;52.100;5.116;2024-01-07T08:08:08;43.33;35.85;66.62;;
84579;Laerm;74804;52.100;5.116;2024-01-07T08:10:39;40.94;35.32;60.20;;
84579;Laerm;74804;52.100;5.116;2024-01-07T08:13:13;40.33;35.10;52.12;;
84579;Laerm;74804;52.100;5.116;2024-01-07T08:15:44;38.56;35.40;48.05;;
84579;Laerm;74804;52.100;5.116;2024-01-07T08:18:15;43.66;35.63;62.78;;
84579;Laerm;74804;52.100;5.116;2024-01-07T08:20:46;41.45;35.15;57.98;;
84579;Laerm;74804;52.100;5.116;2024-01-07T08:23:17;41.90;35.67;60.05;;
84579;Laerm;74804;52.100;5.116;2024-01-07T08:25:48;40.93;35.58;48.74;;
84579;Laerm;74804;52.100;5.116;2024-01-07T08:28:22;39.03;34.57;61.81;;
84579;Laerm;74804;52.100;5.116;2024-01-07T08:30:53;41.57;34.47;62.40;;
84579;Laerm;74804;52.100;5.116;2024-01-07T08:33:25;41.02;34.31;58.01;;
84579;Laerm;74804;52.100;5.116;2024-01-07T08:35:56;40.00;36.10;46.30;;
84579;Laerm;74804;52.100;5.116;2024-01-07T08:38:27;45.01;35.61;62.06;;
84579;Laerm;74804;52.100;5.116;2024-01-07T08:40:58;50.15;36.69;71.12;;
84579;Laerm;74804;52.100;5.116;2024-01-07T08:43:32;39.98;36.77;56.73;;
84579;Laerm;74804;52.100;5.116;2024-01-07T08:46:04;43.25;37.67;56.65;;
84579;Laerm;74804;52.100;5.116;2024-01-07T08:48:35;43.83;39.13;55.02;;
84579;Laerm;74804;52.100;5.116;2024-01-07T08:51:06;43.17;38.81;56.74;;
84579;Laerm;74804;52.100;5.116;2024-01-07T08:53:37;42.11;38.17;56.43;;
84579;Laerm;74804;52.100;5.116;2024-01-07T08:56:08;44.33;39.11;64.36;;
84579;Laerm;74804;52.100;5.116;2024-01-07T08:58:42;44.39;38.18;61.89;;
84579;Laerm;74804;52.100;5.116;2024-01-07T09:01:14;43.70;38.21;56.03;;
84579;Laerm;74804;52.100;5.116;2024-01-07T09:03:45;42.47;37.25;61.35;;
84579;Laerm;74804;52.100;5.116;2024-01-07T09:06:16;43.06;38.90;49.74;;
84579;Laerm;74804;52.100;5.116;2024-01-07T09:08:47;43.10;37.37;52.89;;
84579;Laerm;74804;52.100;5.116;2024-01-07T09:11:18;41.64;38.18;52.42;;
84579;Laerm;74804;52.100;5.116;2024-01-07T09:13:52;41.15;37.34;51.47;;
84579;Laerm;74804;52.100;5.116;2024-01-07T09:16:23;43.08;38.21;59.31;;
84579;Laerm;74804;52.100;5.116;2024-01-07T09:18:54;44.45;39.66;64.36;;
84579;Laerm;74804;52.100;5.116;2024-01-07T09:21:26;43.20;39.43;51.33;;
84579;Laerm;74804;52.100;5.116;2024-01-07T09:23:57;50.15;38.82;73.72;;
84579;Laerm;74804;52.100;5.116;2024-01-07T09:26:28;46.32;38.05;63.36;;
84579;Laerm;74804;52.100;5.116;2024-01-07T09:29:02;46.96;35.84;63.57;;
84579;Laerm;74804;52.100;5.116;2024-01-07T09:31:33;43.66;36.37;56.70;;
84579;Laerm;74804;52.100;5.116;2024-01-07T09:34:04;51.18;36.36;72.35;;
84579;Laerm;74804;52.100;5.116;2024-01-07T09:36:35;44.23;37.75;58.91;;
84579;Laerm;74804;52.100;5.116;2024-01-07T09:39:06;59.06;36.56;80.13;;
84579;Laerm;74804;52.100;5.116;2024-01-07T09:41:37;46.73;36.80;62.23;;
84579;Laerm;74804;52.100;5.116;2024-01-07T09:44:12;46.21;37.51;66.71;;
84579;Laerm;74804;52.100;5.116;2024-01-07T09:46:44;48.62;38.14;63.62;;
84579;Laerm;74804;52.100;5.116;2024-01-07T09:49:19;43.66;38.87;54.56;;
84579;Laerm;74804;52.100;5.116;2024-01-07T09:51:50;42.70;37.45;61.80;;
84579;Laerm;74804;52.100;5.116;2024-01-07T09:54:25;42.70;37.36;62.06;;
84579;Laerm;74804;52.100;5.116;2024-01-07T09:56:58;44.54;37.88;60.05;;
84579;Laerm;74804;52.100;5.116;2024-01-07T09:59:33;42.05;37.40;53.59;;
84579;Laerm;74804;52.100;5.116;2024-01-07T10:02:05;42.93;36.32;55.74;;
84579;Laerm;74804;52.100;5.116;2024-01-07T10:04:37;48.18;37.95;63.69;;
84579;Laerm;74804;52.100;5.116;2024-01-07T10:07:08;41.18;36.71;53.62;;
84579;Laerm;74804;52.100;5.116;2024-01-07T10:09:40;46.70;37.67;65.78;;
84579;Laerm;74804;52.100;5.116;2024-01-07T10:12:11;43.25;37.35;60.88;;
84579;Laerm;74804;52.100;5.116;2024-01-07T10:14:45;43.88;37.33;55.88;;
84579;Laerm;74804;52.100;5.116;2024-01-07T10:17:16;43.95;37.42;61.08;;
84579;Laerm;74804;52.100;5.116;2024-01-07T10:19:51;42.15;36.35;57.89;;
84579;Laerm;74804;52.100;5.116;2024-01-07T10:22:22;46.10;38.56;69.11;;
84579;Laerm;74804;52.100;5.116;2024-01-07T10:24:53;42.53;38.12;54.69;;
84579;Laerm;74804;52.100;5.116;2024-01-07T10:27:25;42.50;37.01;59.01;;
84579;Laerm;74804;52.100;5.116;2024-01-07T10:30:00;44.38;39.17;56.50;;
84579;Laerm;74804;52.100;5.116;2024-01-07T10:32:32;43.12;37.03;61.41;;
84579;Laerm;74804;52.100;5.116;2024-01-07T10:35:04;42.47;38.03;57.73;;
84579;Laerm;74804;52.100;5.116;2024-01-07T10:37:35;42.85;38.89;59.71;;
84579;Laerm;74804;52.100;5.116;2024-01-07T10:40:07;42.96;38.12;50.99;;
84579;Laerm;74804;52.100;5.116;2024-01-07T10:42:39;43.95;39.11;51.72;;
84579;Laerm;74804;52.100;5.116;2024-01-07T10:45:14;43.27;39.60;52.55;;
84579;Laerm;74804;52.100;5.116;2024-01-07T10:47:45;46.65;38.05;67.47;;
84579;Laerm;74804;52.100;5.116;2024-01-07T10:50:19;42.20;38.87;50.41;;
84579;Laerm;74804;52.100;5.116;2024-01-07T10:52:51;44.49;39.01;56.07;;
84579;Laerm;74804;52.100;5.116;2024-01-07T10:55:29;41.79;38.16;55.40;;
84579;Laerm;74804;52.100;5.116;2024-01-07T10:58:04;43.59;38.04;62.87;;
84579;Laerm;74804;52.100;5.116;2024-01-07T11:00:38;43.13;36.88;60.45;;
84579;Laerm;74804;52.100;5.116;2024-01-07T11:03:11;41.53;37.83;54.42;;
84579;Laerm;74804;52.100;5.116;2024-01-07T11:05:48;43.96;38.74;51.11;;
84579;Laerm;74804;52.100;5.116;2024-01-07T11:08:22;42.87;38.48;50.46;;
84579;Laerm;74804;52.100;5.116;2024-01-07T11:10:57;43.52;39.90;58.53;;
84579;Laerm;74804;52.100;5.116;2024-01-07T11:13:32;44.90;39.95;57.44;;
84579;Laerm;74804;52.100;5.116;2024-01-07T11:16:08;42.99;39.21;56.52;;
84579;Laerm;74804;52.100;5.116;2024-01-07T11:18:40;42.33;38.40;55.99;;
84579;Laerm;74804;52.100;5.116;2024-01-07T11:21:20;44.79;39.19;62.31;;
84579;Laerm;74804;52.100;5.116;2024-01-07T11:23:52;43.33;39.29;52.80;;
84579;Laerm;74804;52.100;5.116;2024-01-07T11:26:24;43.66;38.37;58.30;;
84579;Laerm;74804;52.100;5.116;2024-01-07T11:28:55;45.18;37.75;67.96;;
84579;Laerm;74804;52.100;5.116;2024-01-07T11:37:03;42.92;38.97;55.34;;
84579;Laerm;74804;52.100;5.116;2024-01-07T11:39:35;42.56;37.92;56.07;;
84579;Laerm;74804;52.100;5.116;2024-01-07T11:42:07;41.64;37.08;51.38;;
84579;Laerm;74804;52.100;5.116;2024-01-07T11:44:38;42.72;37.90;62.57;;
84579;Laerm;74804;52.100;5.116;2024-01-07T11:47:15;41.58;37.96;53.60;;
84579;Laerm;74804;52.100;5.116;2024-01-07T11:49:47;44.85;39.92;56.99;;
84579;Laerm;74804;52.100;5.116;2024-01-07T11:52:21;43.93;39.62;61.47;;
84579;Laerm;74804;52.100;5.116;2024-01-07T11:54:52;46.59;39.33;64.73;;
84579;Laerm;74804;52.100;5.116;2024-01-07T11:57:23;43.85;39.62;53.74;;
84579;Laerm;74804;52.100;5.116;2024-01-07T11:59:55;42.73;38.15;53.06;;
84579;Laerm;74804;52.100;5.116;2024-01-07T12:02:26;46.35;38.24;59.02;;
84579;Laerm;74804;52.100;5.116;2024-01-07T12:04:58;42.54;38.63;56.56;;
84579;Laerm;74804;52.100;5.116;2024-01-07T12:07:31;50.01;37.35;70.79;;
84579;Laerm;74804;52.100;5.116;2024-01-07T12:10:06;42.24;38.65;49.53;;
84579;Laerm;74804;52.100;5.116;2024-01-07T12:12:39;43.81;39.12;60.07;;
84579;Laerm;74804;52.100;5.116;2024-01-07T12:15:10;43.65;39.31;56.41;;
84579;Laerm;74804;52.100;5.116;2024-01-07T12:17:42;43.09;38.67;51.15;;
84579;Laerm;74804;52.100;5.116;2024-01-07T12:20:14;42.75;39.51;49.99;;
84579;Laerm;74804;52.100;5.116;2024-01-07T12:22:48;45.78;39.73;69.64;;
84579;Laerm;74804;52.100;5.116;2024-01-07T12:25:22;44.26;39.68;60.33;;
84579;Laerm;74804;52.100;5.116;2024-01-07T12:27:54;43.02;39.53;59.98;;
84579;Laerm;74804;52.100;5.116;2024-01-07T12:30:25;43.98;40.23;57.47;;
84579;Laerm;74804;52.100;5.116;2024-01-07T12:32:58;43.91;39.84;60.34;;
84579;Laerm;74804;52.100;5.116;2024-01-07T12:35:29;45.66;41.01;62.78;;
84579;Laerm;74804;52.100;5.116;2024-01-07T12:38:04;48.47;40.74;76.30;;
84579;Laerm;74804;52.100;5.116;2024-01-07T12:40:35;45.30;39.24;60.46;;
84579;Laerm;74804;52.100;5.116;2024-01-07T12:43:06;46.92;40.13;66.68;;
84579;Laerm;74804;52.100;5.116;2024-01-07T12:45:38;49.72;41.23;67.29;;
84579;Laerm;74804;52.100;5.116;2024-01-07T12:48:09;51.22;42.33;70.56;;
84579;Laerm;74804;52.100;5.116;2024-01-07T12:50:40;54.07;41.61;75.25;;
84579;Laerm;74804;52.100;5.116;2024-01-07T12:53:14;51.26;39.73;70.64;;
84579;Laerm;74804;52.100;5.116;2024-01-07T12:55:45;47.74;38.91;73.38;;
84579;Laerm;74804;52.100;5.116;2024-01-07T12:58:16;44.06;38.15;59.34;;
84579;Laerm;74804;52.100;5.116;2024-01-07T13:00:48;44.57;38.71;64.66;;
84579;Laerm;74804;52.100;5.116;2024-01-07T13:03:19;42.85;38.86;53.01;;
84579;Laerm;74804;52.100;5.116;2024-01-07T13:05:52;43.29;37.86;60.04;;
84579;Laerm;74804;52.100;5.116;2024-01-07T13:08:26;41.00;37.44;50.24;;
84579;Laerm;74804;52.100;5.116;2024-01-07T13:10:57;44.45;38.73;57.97;;
84579;Laerm;74804;52.100;5.116;2024-01-07T13:13:28;42.90;38.97;51.99;;
84579;Laerm;74804;52.100;5.116;2024-01-07T13:15:59;44.29;38.69;63.76;;
84579;Laerm;74804;52.100;5.116;2024-01-07T13:18:31;46.07;38.81;64.97;;
84579;Laerm;74804;52.100;5.116;2024-01-07T13:21:02;57.83;39.43;85.95;;
84579;Laerm;74804;52.100;5.116;2024-01-07T13:23:36;45.58;38.73;65.84;;
84579;Laerm;74804;52.100;5.116;2024-01-07T13:26:12;52.32;39.57;75.93;;
84579;Laerm;74804;52.100;5.116;2024-01-07T13:28:43;47.59;39.33;65.02;;
84579;Laerm;74804;52.100;5.116;2024-01-07T13:31:14;43.33;38.49;60.33;;
84579;Laerm;74804;52.100;5.116;2024-01-07T13:33:46;43.18;39.62;49.83;;
84579;Laerm;74804;52.100;5.116;2024-01-07T13:36:17;44.98;39.41;57.12;;
84579;Laerm;74804;52.100;5.116;2024-01-07T13:38:50;48.27;40.59;65.67;;
84579;Laerm;74804;52.100;5.116;2024-01-07T13:41:22;51.92;40.62;72.79;;
84579;Laerm;74804;52.100;5.116;2024-01-07T13:43:56;50.77;40.43;74.74;;
84579;Laerm;74804;52.100;5.116;2024-01-07T13:46:27;54.96;40.80;81.62;;
84579;Laerm;74804;52.100;5.116;2024-01-07T13:48:58;43.94;40.15;53.18;;
84579;Laerm;74804;52.100;5.116;2024-01-07T13:51:30;45.33;40.54;62.59;;
84579;Laerm;74804;52.100;5.116;2024-01-07T13:54:04;50.22;40.76;71.25;;
84579;Laerm;74804;52.100;5.116;2024-01-07T13:56:36;50.76;41.69;69.43;;
84579;Laerm;74804;52.100;5.116;2024-01-07T13:59:10;44.71;38.81;63.85;;
84579;Laerm;74804;52.100;5.116;2024-01-07T14:01:41;43.84;38.63;58.89;;
84579;Laerm;74804;52.100;5.116;2024-01-07T14:04:12;43.53;39.32;55.38;;
84579;Laerm;74804;52.100;5.116;2024-01-07T14:06:43;44.75;40.29;54.36;;
84579;Laerm;74804;52.100;5.116;2024-01-07T14:09:17;46.17;39.85;56.39;;
84579;Laerm;74804;52.100;5.116;2024-01-07T14:11:48;43.34;39.69;58.37;;
84579;Laerm;74804;52.100;5.116;2024-01-07T14:14:19;43.88;39.17;56.88;;
84579;Laerm;74804;52.100;5.116;2024-01-07T14:16:51;44.26;38.48;58.29;;